createdAt,value
2018-07-28T00:02:15.564Z,99.90
2018-07-28T00:04:43.975Z,99.90
2018-07-28T00:07:12.407Z,99.90
2018-07-28T00:09:40.856Z,99.90
2018-07-28T00:12:09.373Z,99.90
2018-07-28T00:14:37.797Z,99.90
2018-07-28T00:17:06.289Z,99.90
2018-07-28T00:19:34.756Z,99.90
2018-07-28T00:22:03.241Z,99.90
2018-07-28T00:24:31.724Z,99.90
2018-07-28T00:27:00.311Z,99.90
2018-07-28T00:29:28.772Z,99.90
2018-07-28T00:31:57.325Z,99.90
2018-07-28T00:34:25.804Z,99.90
2018-07-28T00:36:54.389Z,99.90
2018-07-28T00:39:22.847Z,99.90
2018-07-28T00:41:51.380Z,99.90
2018-07-28T00:44:19.860Z,99.90
2018-07-28T00:46:48.316Z,99.90
2018-07-28T00:49:16.721Z,99.90
2018-07-28T00:51:45.173Z,99.90
2018-07-28T00:54:13.655Z,99.90
2018-07-28T00:56:42.889Z,99.90
2018-07-28T00:59:11.283Z,99.90
2018-07-28T01:01:39.804Z,99.90
2018-07-28T01:04:08.339Z,99.90
2018-07-28T01:09:08.095Z,99.90
2018-07-28T01:11:36.682Z,99.90
2018-07-28T01:14:06.698Z,99.90
2018-07-28T01:16:35.660Z,99.90
2018-07-28T01:21:32.720Z,99.90
2018-07-28T01:24:01.150Z,99.90
2018-07-28T01:26:29.666Z,99.90
2018-07-28T01:29:04.235Z,99.90
2018-07-28T01:31:32.655Z,99.90
2018-07-28T01:34:01.381Z,99.90
2018-07-28T01:36:29.819Z,99.90
2018-07-28T01:38:58.445Z,99.90
2018-07-28T01:41:27.047Z,99.90
2018-07-28T01:43:55.497Z,99.90
2018-07-28T01:46:23.887Z,99.90
2018-07-28T01:48:52.333Z,99.90
2018-07-28T01:51:20.768Z,99.90
2018-07-28T01:53:49.164Z,99.90
2018-07-28T01:56:17.735Z,99.90
2018-07-28T01:58:46.404Z,99.90
2018-07-28T02:01:14.969Z,99.90
2018-07-28T02:03:43.456Z,99.90
2018-07-28T02:08:40.335Z,99.90
2018-07-28T02:11:08.788Z,99.90
2018-07-28T02:16:06.405Z,99.90
2018-07-28T02:18:34.915Z,99.90
2018-07-28T02:21:03.383Z,99.90
2018-07-28T02:23:32.015Z,99.90
2018-07-28T02:26:00.596Z,99.90
2018-07-28T02:28:29.064Z,99.90
2018-07-28T02:30:57.472Z,99.90
2018-07-28T02:33:25.912Z,99.90
2018-07-28T02:35:54.735Z,99.90
2018-07-28T02:38:23.134Z,99.90
2018-07-28T02:40:51.549Z,99.90
2018-07-28T02:43:19.964Z,99.90
2018-07-28T02:48:16.761Z,99.90
2018-07-28T02:50:45.144Z,99.90
2018-07-28T02:53:13.559Z,99.90
2018-07-28T02:55:42.091Z,99.90
2018-07-28T02:58:10.500Z,99.90
2018-07-28T03:00:39.037Z,99.90
2018-07-28T03:03:07.450Z,99.90
2018-07-28T03:05:35.820Z,99.90
2018-07-28T03:08:04.387Z,99.90
2018-07-28T03:10:33.063Z,99.90
2018-07-28T03:13:01.558Z,99.90
2018-07-28T03:15:36.797Z,99.90
2018-07-28T03:18:07.577Z,99.90
2018-07-28T03:20:36.049Z,99.90
2018-07-28T03:23:05.064Z,99.90
2018-07-28T03:25:33.495Z,99.90
2018-07-28T03:28:01.920Z,99.90
2018-07-28T03:30:30.392Z,99.90
2018-07-28T03:32:58.920Z,99.90
2018-07-28T03:35:28.256Z,99.90
2018-07-28T03:37:56.956Z,99.90
2018-07-28T03:40:25.510Z,99.90
2018-07-28T03:42:54.122Z,99.90
2018-07-28T03:45:22.735Z,99.90
2018-07-28T03:47:51.178Z,99.90
2018-07-28T03:50:19.624Z,99.90
2018-07-28T03:52:48.282Z,99.90
2018-07-28T03:55:16.681Z,99.90
2018-07-28T03:57:45.187Z,99.90
2018-07-28T04:00:13.612Z,99.90
2018-07-28T04:02:42.028Z,99.90
2018-07-28T04:05:11.686Z,99.90
2018-07-28T04:07:40.726Z,99.90
2018-07-28T04:10:09.916Z,99.90
2018-07-28T04:12:39.201Z,99.90
2018-07-28T04:15:10.003Z,99.90
2018-07-28T04:17:49.498Z,99.90
2018-07-28T04:20:17.960Z,99.90
2018-07-28T04:22:46.394Z,99.90
2018-07-28T04:25:14.899Z,99.90
2018-07-28T04:27:43.381Z,99.90
2018-07-28T04:30:11.897Z,99.90
2018-07-28T04:32:40.472Z,99.90
2018-07-28T04:35:09.102Z,99.90
2018-07-28T04:37:38.678Z,99.90
2018-07-28T04:40:08.297Z,99.90
2018-07-28T04:42:36.857Z,99.90
2018-07-28T04:45:06.032Z,99.90
2018-07-28T04:50:02.788Z,99.90
2018-07-28T04:52:31.225Z,99.90
2018-07-28T04:55:00.030Z,99.90
2018-07-28T04:57:28.474Z,99.90
2018-07-28T04:59:57.136Z,99.90
2018-07-28T05:02:26.909Z,99.90
2018-07-28T05:04:56.130Z,99.90
2018-07-28T05:07:25.211Z,99.90
2018-07-28T05:09:54.049Z,99.90
2018-07-28T05:12:22.696Z,99.90
2018-07-28T05:14:51.161Z,99.90
2018-07-28T05:17:19.685Z,99.90
2018-07-28T05:19:48.139Z,99.90
2018-07-28T05:22:16.609Z,99.90
2018-07-28T05:24:45.395Z,99.90
2018-07-28T05:27:14.055Z,99.90
2018-07-28T05:29:42.619Z,99.90
2018-07-28T05:32:11.089Z,99.90
2018-07-28T05:34:39.518Z,99.90
2018-07-28T05:37:08.013Z,99.90
2018-07-28T05:39:36.420Z,99.90
2018-07-28T05:42:04.890Z,99.90
2018-07-28T05:44:33.459Z,99.90
2018-07-28T05:47:02.039Z,99.90
2018-07-28T05:49:30.523Z,99.90
2018-07-28T05:51:58.992Z,99.90
2018-07-28T05:54:27.589Z,99.90
2018-07-28T05:56:56.067Z,99.90
2018-07-28T05:59:24.721Z,99.90
2018-07-28T06:01:53.529Z,99.90
2018-07-28T06:04:22.221Z,99.90
2018-07-28T06:06:50.924Z,99.90
2018-07-28T06:09:19.515Z,99.90
2018-07-28T06:11:48.069Z,99.90
2018-07-28T06:14:16.628Z,99.90
2018-07-28T06:16:45.093Z,99.90
2018-07-28T06:19:13.601Z,99.90
2018-07-28T06:21:42.162Z,99.90
2018-07-28T06:24:10.808Z,99.90
2018-07-28T06:26:39.276Z,99.90
2018-07-28T06:29:07.756Z,99.90
2018-07-28T06:34:04.456Z,99.90
2018-07-28T06:36:33.207Z,99.90
2018-07-28T06:41:29.999Z,99.90
2018-07-28T06:43:58.460Z,99.90
2018-07-28T06:46:26.917Z,99.90
2018-07-28T06:48:56.159Z,99.90
2018-07-28T06:51:24.605Z,99.90
2018-07-28T06:53:53.012Z,99.90
2018-07-28T06:56:21.532Z,99.90
2018-07-28T06:58:50.091Z,99.90
2018-07-28T07:01:18.821Z,99.30
2018-07-28T07:03:47.374Z,98.90
2018-07-28T07:06:15.906Z,98.80
2018-07-28T07:08:44.341Z,98.60
2018-07-28T07:11:12.879Z,98.20
2018-07-28T07:13:41.784Z,98.60
2018-07-28T07:16:10.414Z,98.10
2018-07-28T07:18:45.342Z,97.60
2018-07-28T07:21:13.877Z,97.40
2018-07-28T07:23:42.305Z,96.50
2018-07-28T07:26:10.780Z,97.00
2018-07-28T07:28:39.270Z,96.40
2018-07-28T07:31:07.813Z,95.70
2018-07-28T07:33:36.455Z,95.40
2018-07-28T07:36:05.089Z,95.20
2018-07-28T07:38:34.551Z,95.40
2018-07-28T07:41:03.090Z,95.00
2018-07-28T07:43:31.556Z,94.10
2018-07-28T07:46:00.014Z,95.80
2018-07-28T07:48:28.478Z,94.40
2018-07-28T07:50:56.968Z,93.50
2018-07-28T07:53:25.521Z,92.90
2018-07-28T07:55:53.994Z,93.00
2018-07-28T07:58:22.642Z,93.70
2018-07-28T08:00:51.116Z,93.00
2018-07-28T08:03:19.567Z,92.40
2018-07-28T08:05:48.073Z,93.60
2018-07-28T08:08:16.566Z,93.00
2018-07-28T08:10:45.329Z,91.50
2018-07-28T08:13:14.086Z,90.60
2018-07-28T08:15:42.591Z,90.40
2018-07-28T08:18:11.108Z,90.50
2018-07-28T08:20:39.741Z,91.40
2018-07-28T08:23:08.669Z,88.40
2018-07-28T08:25:37.214Z,90.50
2018-07-28T08:28:05.677Z,90.00
2018-07-28T08:30:34.257Z,88.80
2018-07-28T08:33:02.985Z,88.10
2018-07-28T08:35:31.567Z,87.00
2018-07-28T08:38:00.156Z,89.40
2018-07-28T08:40:28.775Z,89.10
2018-07-28T08:42:57.340Z,87.10
2018-07-28T08:45:25.731Z,84.20
2018-07-28T08:47:54.266Z,82.80
2018-07-28T08:50:22.698Z,85.00
2018-07-28T08:52:51.378Z,84.90
2018-07-28T08:55:19.949Z,84.60
2018-07-28T08:57:48.675Z,84.40
2018-07-28T09:00:17.138Z,83.30
2018-07-28T09:02:45.582Z,81.50
2018-07-28T09:05:14.112Z,81.00
2018-07-28T09:07:42.689Z,78.90
2018-07-28T09:10:11.209Z,77.90
2018-07-28T09:12:39.734Z,81.00
2018-07-28T09:15:09.222Z,82.30
2018-07-28T09:17:37.651Z,81.80
2018-07-28T09:20:06.704Z,81.50
2018-07-28T09:22:35.237Z,85.20
2018-07-28T09:25:03.815Z,81.70
2018-07-28T09:27:32.660Z,78.10
2018-07-28T09:30:01.097Z,76.70
2018-07-28T09:32:29.569Z,73.00
2018-07-28T09:34:58.185Z,71.70
2018-07-28T09:37:26.812Z,71.40
2018-07-28T09:39:55.884Z,70.00
2018-07-28T09:42:24.569Z,71.40
2018-07-28T09:44:53.391Z,70.00
2018-07-28T09:47:21.942Z,69.80
2018-07-28T09:49:50.601Z,71.10
2018-07-28T09:52:19.184Z,67.30
2018-07-28T09:54:47.966Z,69.10
2018-07-28T09:57:16.454Z,68.00
2018-07-28T09:59:45.028Z,69.90
2018-07-28T10:02:14.243Z,70.50
2018-07-28T10:04:42.964Z,70.00
2018-07-28T10:07:11.401Z,71.60
2018-07-28T10:09:39.856Z,68.30
2018-07-28T10:12:08.398Z,66.80
2018-07-28T10:14:36.882Z,63.20
2018-07-28T10:17:05.426Z,62.50
2018-07-28T10:19:34.110Z,61.60
2018-07-28T10:22:02.765Z,59.80
2018-07-28T10:24:31.601Z,58.10
2018-07-28T10:27:00.189Z,59.10
2018-07-28T10:29:29.059Z,60.20
2018-07-28T10:31:57.544Z,60.50
2018-07-28T10:34:26.106Z,59.30
2018-07-28T10:36:54.781Z,57.70
2018-07-28T10:39:23.328Z,56.70
2018-07-28T10:41:51.766Z,57.90
2018-07-28T10:44:20.313Z,56.20
2018-07-28T10:46:48.824Z,54.90
2018-07-28T10:49:17.274Z,54.90
2018-07-28T10:51:45.860Z,54.60
2018-07-28T10:54:14.374Z,54.80
2018-07-28T10:56:42.922Z,56.20
2018-07-28T11:01:39.674Z,57.50
2018-07-28T11:04:08.303Z,57.30
2018-07-28T11:06:37.050Z,56.70
2018-07-28T11:09:08.417Z,55.70
2018-07-28T11:11:37.431Z,54.80
2018-07-28T11:14:06.412Z,57.80
2018-07-28T11:16:34.969Z,56.10
2018-07-28T11:19:03.809Z,53.50
2018-07-28T11:21:32.335Z,54.80
2018-07-28T11:24:02.093Z,55.10
2018-07-28T11:26:30.638Z,54.10
2018-07-28T11:31:38.617Z,52.40
2018-07-28T11:34:18.244Z,52.40
2018-07-28T11:36:58.136Z,50.10
2018-07-28T11:39:37.780Z,49.40
2018-07-28T11:42:17.579Z,48.80
2018-07-28T11:45:06.125Z,47.00
2018-07-28T11:47:34.703Z,46.40
2018-07-28T11:50:03.219Z,47.70
2018-07-28T11:52:31.616Z,47.00
2018-07-28T11:55:00.191Z,45.60
2018-07-28T11:57:28.788Z,44.50
2018-07-28T11:59:57.381Z,43.90
2018-07-28T12:02:25.886Z,44.50
2018-07-28T12:04:54.421Z,44.70
2018-07-28T12:07:22.854Z,45.00
2018-07-28T12:09:51.419Z,46.00
2018-07-28T12:12:20.191Z,48.10
2018-07-28T12:14:49.814Z,47.20
2018-07-28T12:17:18.560Z,45.60
2018-07-28T12:19:47.074Z,45.10
2018-07-28T12:22:15.599Z,44.20
2018-07-28T12:24:44.036Z,44.30
2018-07-28T12:27:12.491Z,46.80
2018-07-28T12:29:40.906Z,48.90
2018-07-28T12:32:09.654Z,51.10
2018-07-28T12:34:38.148Z,52.50
2018-07-28T12:37:06.718Z,54.30
2018-07-28T12:39:35.263Z,55.90
2018-07-28T12:42:03.753Z,59.50
2018-07-28T12:44:32.529Z,62.90
2018-07-28T12:47:00.974Z,66.30
2018-07-28T12:51:57.660Z,73.80
2018-07-28T12:54:26.240Z,75.10
2018-07-28T12:56:54.905Z,75.90
2018-07-28T12:59:23.305Z,77.10
2018-07-28T13:01:51.893Z,77.60
2018-07-28T13:04:20.352Z,78.10
2018-07-28T13:06:48.847Z,78.70
2018-07-28T13:09:17.286Z,77.90
2018-07-28T13:11:45.812Z,74.50
2018-07-28T13:14:14.356Z,68.90
2018-07-28T13:16:42.790Z,67.10
2018-07-28T13:19:11.245Z,67.50
2018-07-28T13:21:39.903Z,67.00
2018-07-28T13:24:08.383Z,65.30
2018-07-28T13:26:36.893Z,63.20
2018-07-28T13:29:05.345Z,62.10
2018-07-28T13:31:33.828Z,62.90
2018-07-28T13:34:02.543Z,62.00
2018-07-28T13:36:30.951Z,60.50
2018-07-28T13:38:59.353Z,60.80
2018-07-28T13:41:27.832Z,63.80
2018-07-28T13:43:56.362Z,67.30
2018-07-28T13:46:24.933Z,64.70
2018-07-28T13:48:53.463Z,60.70
2018-07-28T13:51:21.930Z,59.00
2018-07-28T13:53:50.382Z,59.10
2018-07-28T13:56:18.878Z,59.10
2018-07-28T13:58:47.510Z,62.10
2018-07-28T14:01:15.997Z,66.10
2018-07-28T14:03:44.506Z,70.30
2018-07-28T14:06:13.124Z,73.70
2018-07-28T14:08:41.524Z,75.30
2018-07-28T14:11:10.313Z,76.30
2018-07-28T14:13:38.920Z,76.70
2018-07-28T14:16:07.480Z,77.60
2018-07-28T14:18:36.034Z,78.60
2018-07-28T14:21:04.693Z,79.60
2018-07-28T14:23:33.255Z,81.60
2018-07-28T14:26:01.673Z,84.20
2018-07-28T14:28:30.316Z,90.10
2018-07-28T14:30:59.039Z,94.00
2018-07-28T14:33:27.543Z,97.80
2018-07-28T14:35:56.024Z,99.50
2018-07-28T14:38:24.737Z,99.90
2018-07-28T14:40:53.248Z,99.90
2018-07-28T14:43:21.659Z,99.90
2018-07-28T14:45:50.235Z,99.90
2018-07-28T14:48:18.838Z,99.90
2018-07-28T14:50:47.391Z,99.90
2018-07-28T14:53:15.961Z,99.90
2018-07-28T14:55:44.618Z,99.90
2018-07-28T14:58:13.056Z,99.90
2018-07-28T15:00:41.943Z,99.90
2018-07-28T15:03:10.369Z,99.90
2018-07-28T15:05:39.147Z,99.90
2018-07-28T15:08:07.797Z,99.90
2018-07-28T15:10:36.334Z,99.90
2018-07-28T15:13:04.768Z,99.90
2018-07-28T15:15:33.241Z,99.90
2018-07-28T15:18:01.908Z,99.90
2018-07-28T15:20:30.473Z,99.90
2018-07-28T15:25:27.048Z,99.90
2018-07-28T15:27:55.616Z,99.90
2018-07-28T15:30:24.237Z,99.90
2018-07-28T15:32:52.946Z,99.90
2018-07-28T15:35:21.649Z,99.90
2018-07-28T15:37:50.470Z,99.90
2018-07-28T15:40:18.910Z,99.90
2018-07-28T15:42:47.549Z,99.90
2018-07-28T15:45:16.069Z,99.90
2018-07-28T15:47:44.594Z,99.90
2018-07-28T15:50:13.124Z,99.90
2018-07-28T15:52:42.019Z,99.90
2018-07-28T15:55:10.515Z,99.90
2018-07-28T15:57:39.667Z,99.90
2018-07-28T16:00:08.367Z,99.90
2018-07-28T16:02:36.849Z,99.90
2018-07-28T16:05:05.495Z,99.90
2018-07-28T16:07:34.149Z,99.90
2018-07-28T16:12:30.903Z,99.90
2018-07-28T16:17:27.877Z,99.90
2018-07-28T16:19:56.288Z,99.90
2018-07-28T16:22:24.789Z,99.90
2018-07-28T16:24:53.185Z,99.90
2018-07-28T16:27:21.729Z,99.90
2018-07-28T16:29:50.296Z,99.90
2018-07-28T16:32:18.957Z,99.90
2018-07-28T16:34:47.447Z,99.90
2018-07-28T16:37:16.010Z,99.90
2018-07-28T16:39:44.516Z,99.90
2018-07-28T16:42:13.103Z,99.90
2018-07-28T16:44:41.931Z,99.90
2018-07-28T16:47:10.675Z,99.90
2018-07-28T16:49:39.178Z,99.90
2018-07-28T16:52:07.766Z,99.90
2018-07-28T16:54:36.495Z,99.90
2018-07-28T16:57:05.165Z,99.90
2018-07-28T16:59:33.634Z,99.90
2018-07-28T17:02:02.141Z,99.90
2018-07-28T17:04:30.613Z,99.80
2018-07-28T17:06:59.051Z,99.70
2018-07-28T17:09:27.559Z,99.90
2018-07-28T17:11:56.016Z,99.90
2018-07-28T17:14:24.552Z,99.90
2018-07-28T17:16:53.284Z,99.90
2018-07-28T17:19:21.794Z,99.90
2018-07-28T17:21:50.335Z,99.90
2018-07-28T17:24:18.870Z,99.90
2018-07-28T17:26:47.405Z,99.90
2018-07-28T17:29:15.981Z,99.90
2018-07-28T17:31:44.637Z,99.90
2018-07-28T17:34:13.155Z,99.90
2018-07-28T17:36:41.638Z,99.90
2018-07-28T17:39:11.033Z,99.90
2018-07-28T17:41:40.092Z,99.90
2018-07-28T17:44:08.609Z,99.90
2018-07-28T17:46:37.153Z,99.90
2018-07-28T17:49:05.668Z,99.90
2018-07-28T17:51:34.328Z,99.90
2018-07-28T17:54:02.840Z,99.90
2018-07-28T17:56:31.234Z,99.90
2018-07-28T17:58:59.727Z,99.90
2018-07-28T18:01:28.358Z,99.90
2018-07-28T18:03:56.926Z,99.90
2018-07-28T18:06:25.407Z,99.90
2018-07-28T18:08:53.905Z,99.90
2018-07-28T18:11:22.373Z,99.90
2018-07-28T18:13:50.900Z,99.90
2018-07-28T18:16:19.490Z,99.90
2018-07-28T18:18:48.010Z,99.90
2018-07-28T18:23:44.698Z,99.90
2018-07-28T18:26:13.142Z,99.90
2018-07-28T18:28:41.786Z,99.90
2018-07-28T18:31:10.241Z,99.90
2018-07-28T18:33:38.804Z,99.90
2018-07-28T18:36:07.257Z,99.90
2018-07-28T18:38:35.682Z,99.90
2018-07-28T18:43:32.497Z,99.90
2018-07-28T18:46:01.016Z,99.90
2018-07-28T18:48:29.564Z,99.90
2018-07-28T18:50:57.960Z,99.90
2018-07-28T18:53:26.529Z,99.90
2018-07-28T18:55:55.116Z,99.90
2018-07-28T18:58:23.908Z,99.90
2018-07-28T19:00:52.824Z,99.90
2018-07-28T19:03:21.314Z,99.90
2018-07-28T19:05:49.811Z,99.90
2018-07-28T19:08:18.261Z,99.90
2018-07-28T19:10:46.801Z,99.90
2018-07-28T19:13:20.669Z,99.90
2018-07-28T19:15:49.206Z,99.90
2018-07-28T19:18:23.359Z,99.90
2018-07-28T19:20:51.842Z,99.90
2018-07-28T19:23:25.769Z,99.90
2018-07-28T19:25:54.433Z,99.90
2018-07-28T19:29:26.100Z,99.90
2018-07-28T19:31:54.586Z,99.90
2018-07-28T19:34:23.040Z,99.90
2018-07-28T19:36:56.824Z,99.90
2018-07-28T19:39:25.348Z,99.90
2018-07-28T19:41:59.234Z,99.90
2018-07-28T19:44:27.717Z,99.90
2018-07-28T19:46:56.235Z,99.90
2018-07-28T19:49:24.747Z,99.90
2018-07-28T19:51:53.263Z,99.90
2018-07-28T19:54:21.697Z,99.90
2018-07-28T19:56:50.157Z,99.90
2018-07-28T19:59:18.688Z,99.90
2018-07-28T20:01:53.653Z,99.90
2018-07-28T20:04:22.111Z,99.90
2018-07-28T20:09:18.971Z,99.90
2018-07-28T20:11:47.494Z,99.90
2018-07-28T20:14:15.938Z,99.90
2018-07-28T20:16:44.552Z,99.90
2018-07-28T20:19:13.056Z,99.90
2018-07-28T20:21:41.574Z,99.90
2018-07-28T20:24:10.197Z,99.90
2018-07-28T20:26:38.972Z,99.90
2018-07-28T20:29:07.512Z,99.90
2018-07-28T20:31:36.121Z,99.90
2018-07-28T20:34:04.586Z,99.90
2018-07-28T20:36:33.050Z,99.90
2018-07-28T20:39:01.537Z,99.90
2018-07-28T20:41:30.142Z,99.90
2018-07-28T20:46:26.739Z,99.90
2018-07-28T20:48:55.190Z,99.90
2018-07-28T20:51:23.676Z,99.90
2018-07-28T20:56:20.342Z,99.90
2018-07-28T20:58:48.782Z,99.90
2018-07-28T21:01:17.279Z,99.90
2018-07-28T21:03:46.008Z,99.90
2018-07-28T21:06:15.451Z,99.90
2018-07-28T21:08:44.260Z,99.90
2018-07-28T21:11:12.708Z,99.90
2018-07-28T21:13:41.320Z,99.90
2018-07-28T21:16:09.736Z,99.90
2018-07-28T21:18:38.251Z,99.90
2018-07-28T21:21:07.412Z,99.90
2018-07-28T21:23:36.014Z,99.90
2018-07-28T21:26:04.705Z,99.90
2018-07-28T21:28:33.272Z,99.90
2018-07-28T21:31:01.841Z,99.90
2018-07-28T21:33:30.280Z,99.90
2018-07-28T21:35:58.917Z,99.90
2018-07-28T21:38:27.460Z,99.90
2018-07-28T21:43:24.192Z,99.90
2018-07-28T21:45:52.833Z,99.90
2018-07-28T21:48:21.335Z,99.90
2018-07-28T21:50:49.964Z,99.90
2018-07-28T21:53:18.577Z,99.90
2018-07-28T21:55:47.122Z,99.90
2018-07-28T21:58:15.795Z,99.90
2018-07-28T22:00:50.773Z,99.90
2018-07-28T22:03:19.248Z,99.90
2018-07-28T22:05:47.721Z,99.90
2018-07-28T22:08:16.286Z,99.90
2018-07-28T22:10:44.771Z,99.90
2018-07-28T22:13:13.396Z,99.90
2018-07-28T22:15:41.915Z,99.90
2018-07-28T22:18:10.407Z,99.90
2018-07-28T22:20:38.884Z,99.90
2018-07-28T22:23:07.483Z,99.90
2018-07-28T22:25:36.039Z,99.90
2018-07-28T22:28:04.597Z,99.90
2018-07-28T22:30:33.190Z,99.90
2018-07-28T22:33:01.718Z,99.90
2018-07-28T22:35:30.372Z,99.90
2018-07-28T22:37:59.159Z,99.90
2018-07-28T22:40:27.600Z,99.90
2018-07-28T22:42:56.203Z,99.90
2018-07-28T22:45:24.736Z,99.90
2018-07-28T22:50:21.545Z,99.90
2018-07-28T22:52:50.077Z,99.90
2018-07-28T22:55:18.720Z,99.90
2018-07-28T22:57:47.137Z,99.90
2018-07-28T23:00:15.714Z,99.90
2018-07-28T23:02:44.145Z,99.90
2018-07-28T23:05:12.718Z,99.90
2018-07-28T23:07:41.237Z,99.90
2018-07-28T23:10:10.020Z,99.90
2018-07-28T23:12:38.644Z,99.90
2018-07-28T23:15:07.169Z,99.90
2018-07-28T23:17:35.721Z,99.90
2018-07-28T23:20:04.693Z,99.90
2018-07-28T23:22:33.100Z,99.90
2018-07-28T23:25:01.586Z,99.90
2018-07-28T23:27:30.220Z,99.90
2018-07-28T23:29:58.658Z,99.90
2018-07-28T23:32:27.321Z,99.90
2018-07-28T23:34:56.871Z,99.90
2018-07-28T23:37:25.414Z,99.90
2018-07-28T23:39:53.987Z,99.90
2018-07-28T23:42:22.511Z,99.90
2018-07-28T23:44:51.116Z,99.90
2018-07-28T23:47:19.621Z,99.90
2018-07-28T23:49:48.220Z,99.90
2018-07-28T23:52:16.882Z,99.90
2018-07-28T23:54:45.448Z,99.90
2018-07-28T23:57:14.028Z,99.90
2018-07-28T23:59:42.767Z,99.90
